sensor_id;sensor_type;location;lat;lon;timestamp;temperature;humidity
17715;DHT22;8977;50.902;4.314;2023-05-14T00:00:22;17.80;99.90
17715;DHT22;8977;50.902;4.314;2023-05-14T00:02:51;17.80;99.90
17715;DHT22;8977;50.902;4.314;2023-05-14T00:05:18;17.80;99.90
17715;DHT22;8977;50.902;4.314;2023-05-14T00:07:45;17.80;99.90
17715;DHT22;8977;50.902;4.314;2023-05-14T00:10:12;17.70;99.90
17715;DHT22;8977;50.902;4.314;2023-05-14T00:12:39;17.80;99.90
17715;DHT22;8977;50.902;4.314;2023-05-14T00:15:07;17.70;99.90
17715;DHT22;8977;50.902;4.314;2023-05-14T00:17:34;17.80;99.90
17715;DHT22;8977;50.902;4.314;2023-05-14T00:20:03;17.70;99.90
17715;DHT22;8977;50.902;4.314;2023-05-14T00:22:31;17.80;99.90
17715;DHT22;8977;50.902;4.314;2023-05-14T00:24:58;17.70;99.90
17715;DHT22;8977;50.902;4.314;2023-05-14T00:27:25;17.70;99.90
17715;DHT22;8977;50.902;4.314;2023-05-14T00:29:52;17.70;99.90
17715;DHT22;8977;50.902;4.314;2023-05-14T00:32:19;17.60;99.90
17715;DHT22;8977;50.902;4.314;2023-05-14T00:34:46;17.60;99.90
17715;DHT22;8977;50.902;4.314;2023-05-14T00:37:14;17.60;99.90
17715;DHT22;8977;50.902;4.314;2023-05-14T00:39:41;17.60;99.90
17715;DHT22;8977;50.902;4.314;2023-05-14T00:42:08;17.50;99.90
17715;DHT22;8977;50.902;4.314;2023-05-14T00:44:35;17.50;99.90
17715;DHT22;8977;50.902;4.314;2023-05-14T00:47:02;17.50;99.90
17715;DHT22;8977;50.902;4.314;2023-05-14T00:49:29;17.50;99.90
17715;DHT22;8977;50.902;4.314;2023-05-14T00:51:56;17.50;99.90
17715;DHT22;8977;50.902;4.314;2023-05-14T00:54:28;17.50;99.90
17715;DHT22;8977;50.902;4.314;2023-05-14T00:56:55;17.40;99.90
17715;DHT22;8977;50.902;4.314;2023-05-14T00:59:22;17.50;99.90
17715;DHT22;8977;50.902;4.314;2023-05-14T01:01:49;17.50;99.90
17715;DHT22;8977;50.902;4.314;2023-05-14T01:04:16;17.40;99.90
17715;DHT22;8977;50.902;4.314;2023-05-14T01:06:51;17.50;99.90
17715;DHT22;8977;50.902;4.314;2023-05-14T01:09:28;17.50;99.90
17715;DHT22;8977;50.902;4.314;2023-05-14T01:12:04;17.50;99.90
17715;DHT22;8977;50.902;4.314;2023-05-14T01:14:38;17.50;99.90
17715;DHT22;8977;50.902;4.314;2023-05-14T01:17:10;17.50;99.90
17715;DHT22;8977;50.902;4.314;2023-05-14T01:19:42;17.50;99.90
17715;DHT22;8977;50.902;4.314;2023-05-14T01:22:11;17.50;99.90
17715;DHT22;8977;50.902;4.314;2023-05-14T01:24:38;17.50;99.90
17715;DHT22;8977;50.902;4.314;2023-05-14T01:27:10;17.40;99.90
17715;DHT22;8977;50.902;4.314;2023-05-14T01:29:44;17.40;99.90
17715;DHT22;8977;50.902;4.314;2023-05-14T01:32:12;17.50;99.90
17715;DHT22;8977;50.902;4.314;2023-05-14T01:34:41;17.50;99.90
17715;DHT22;8977;50.902;4.314;2023-05-14T01:37:12;17.50;99.90
17715;DHT22;8977;50.902;4.314;2023-05-14T01:39:39;17.50;99.90
17715;DHT22;8977;50.902;4.314;2023-05-14T01:42:08;17.40;99.90
17715;DHT22;8977;50.902;4.314;2023-05-14T01:44:35;17.50;99.90
17715;DHT22;8977;50.902;4.314;2023-05-14T01:47:03;17.50;99.90
17715;DHT22;8977;50.902;4.314;2023-05-14T01:49:30;17.50;99.90
17715;DHT22;8977;50.902;4.314;2023-05-14T01:51:57;17.50;99.90
17715;DHT22;8977;50.902;4.314;2023-05-14T01:54:25;17.40;99.90
17715;DHT22;8977;50.902;4.314;2023-05-14T01:56:52;17.50;99.90
17715;DHT22;8977;50.902;4.314;2023-05-14T01:59:19;17.40;99.90
17715;DHT22;8977;50.902;4.314;2023-05-14T02:01:46;17.40;99.90
17715;DHT22;8977;50.902;4.314;2023-05-14T02:04:13;17.40;99.90
17715;DHT22;8977;50.902;4.314;2023-05-14T02:06:40;17.50;99.90
17715;DHT22;8977;50.902;4.314;2023-05-14T02:09:06;17.40;99.90
17715;DHT22;8977;50.902;4.314;2023-05-14T02:11:35;17.40;99.90
17715;DHT22;8977;50.902;4.314;2023-05-14T02:14:02;17.40;99.90
17715;DHT22;8977;50.902;4.314;2023-05-14T02:16:29;17.30;99.90
17715;DHT22;8977;50.902;4.314;2023-05-14T02:18:55;17.30;99.90
17715;DHT22;8977;50.902;4.314;2023-05-14T02:21:23;17.30;99.90
17715;DHT22;8977;50.902;4.314;2023-05-14T02:23:50;17.40;99.90
17715;DHT22;8977;50.902;4.314;2023-05-14T02:26:17;17.40;99.90
17715;DHT22;8977;50.902;4.314;2023-05-14T02:28:45;17.40;99.90
17715;DHT22;8977;50.902;4.314;2023-05-14T02:31:12;17.40;99.90
17715;DHT22;8977;50.902;4.314;2023-05-14T02:33:39;17.40;99.90
17715;DHT22;8977;50.902;4.314;2023-05-14T02:36:06;17.40;99.90
17715;DHT22;8977;50.902;4.314;2023-05-14T02:38:33;17.40;99.90
17715;DHT22;8977;50.902;4.314;2023-05-14T02:41:00;17.40;99.90
17715;DHT22;8977;50.902;4.314;2023-05-14T02:43:27;17.40;99.90
17715;DHT22;8977;50.902;4.314;2023-05-14T02:45:55;17.40;99.90
17715;DHT22;8977;50.902;4.314;2023-05-14T02:48:22;17.40;99.90
17715;DHT22;8977;50.902;4.314;2023-05-14T02:50:49;17.40;99.90
17715;DHT22;8977;50.902;4.314;2023-05-14T02:53:16;17.40;99.90
17715;DHT22;8977;50.902;4.314;2023-05-14T02:55:43;17.30;99.90
17715;DHT22;8977;50.902;4.314;2023-05-14T02:58:10;17.30;99.90
17715;DHT22;8977;50.902;4.314;2023-05-14T03:00:37;17.30;99.90
17715;DHT22;8977;50.902;4.314;2023-05-14T03:03:05;17.30;99.90
17715;DHT22;8977;50.902;4.314;2023-05-14T03:05:32;17.40;99.90
17715;DHT22;8977;50.902;4.314;2023-05-14T03:07:59;17.40;99.90
17715;DHT22;8977;50.902;4.314;2023-05-14T03:10:26;17.40;99.90
17715;DHT22;8977;50.902;4.314;2023-05-14T03:12:53;17.40;99.90
17715;DHT22;8977;50.902;4.314;2023-05-14T03:15:20;17.40;99.90
17715;DHT22;8977;50.902;4.314;2023-05-14T03:17:47;17.30;99.90
17715;DHT22;8977;50.902;4.314;2023-05-14T03:20:15;17.30;99.90
17715;DHT22;8977;50.902;4.314;2023-05-14T03:22:42;17.30;99.90
17715;DHT22;8977;50.902;4.314;2023-05-14T03:25:09;17.30;99.90
17715;DHT22;8977;50.902;4.314;2023-05-14T03:27:36;17.30;99.90
17715;DHT22;8977;50.902;4.314;2023-05-14T03:30:04;17.30;99.90
17715;DHT22;8977;50.902;4.314;2023-05-14T03:32:31;17.30;99.90
17715;DHT22;8977;50.902;4.314;2023-05-14T03:34:58;17.30;99.90
17715;DHT22;8977;50.902;4.314;2023-05-14T03:37:26;17.30;99.90
17715;DHT22;8977;50.902;4.314;2023-05-14T03:39:53;17.30;99.90
17715;DHT22;8977;50.902;4.314;2023-05-14T03:42:20;17.30;99.90
17715;DHT22;8977;50.902;4.314;2023-05-14T03:44:47;17.30;99.90
17715;DHT22;8977;50.902;4.314;2023-05-14T03:47:14;17.20;99.90
17715;DHT22;8977;50.902;4.314;2023-05-14T03:49:41;17.20;99.90
17715;DHT22;8977;50.902;4.314;2023-05-14T03:52:08;17.30;99.90
17715;DHT22;8977;50.902;4.314;2023-05-14T03:54:36;17.30;99.90
17715;DHT22;8977;50.902;4.314;2023-05-14T03:57:03;17.30;99.90
17715;DHT22;8977;50.902;4.314;2023-05-14T03:59:30;17.30;99.90
17715;DHT22;8977;50.902;4.314;2023-05-14T04:01:57;17.30;99.90
17715;DHT22;8977;50.902;4.314;2023-05-14T04:04:24;17.30;99.90
17715;DHT22;8977;50.902;4.314;2023-05-14T04:06:51;17.30;99.90
17715;DHT22;8977;50.902;4.314;2023-05-14T04:09:18;17.30;99.90
17715;DHT22;8977;50.902;4.314;2023-05-14T04:11:46;17.30;99.90
17715;DHT22;8977;50.902;4.314;2023-05-14T04:14:13;17.30;99.90
17715;DHT22;8977;50.902;4.314;2023-05-14T04:16:41;17.30;99.90
17715;DHT22;8977;50.902;4.314;2023-05-14T04:19:08;17.20;99.90
17715;DHT22;8977;50.902;4.314;2023-05-14T04:21:35;17.20;99.90
17715;DHT22;8977;50.902;4.314;2023-05-14T04:24:02;17.20;99.90
17715;DHT22;8977;50.902;4.314;2023-05-14T04:26:29;17.20;99.90
17715;DHT22;8977;50.902;4.314;2023-05-14T04:28:57;17.20;99.90
17715;DHT22;8977;50.902;4.314;2023-05-14T04:31:27;17.20;99.90
17715;DHT22;8977;50.902;4.314;2023-05-14T04:33:54;17.20;99.90
17715;DHT22;8977;50.902;4.314;2023-05-14T04:36:21;17.20;99.90
17715;DHT22;8977;50.902;4.314;2023-05-14T04:38:48;17.30;99.90
17715;DHT22;8977;50.902;4.314;2023-05-14T04:41:15;17.30;99.90
17715;DHT22;8977;50.902;4.314;2023-05-14T04:43:42;17.30;99.90
17715;DHT22;8977;50.902;4.314;2023-05-14T04:46:10;17.30;99.90
17715;DHT22;8977;50.902;4.314;2023-05-14T04:48:38;17.30;99.90
17715;DHT22;8977;50.902;4.314;2023-05-14T04:51:05;17.30;99.90
17715;DHT22;8977;50.902;4.314;2023-05-14T04:53:32;17.20;99.90
17715;DHT22;8977;50.902;4.314;2023-05-14T04:55:59;17.20;99.90
17715;DHT22;8977;50.902;4.314;2023-05-14T04:58:26;17.20;99.90
17715;DHT22;8977;50.902;4.314;2023-05-14T05:00:53;17.20;99.90
17715;DHT22;8977;50.902;4.314;2023-05-14T05:03:22;17.20;99.90
17715;DHT22;8977;50.902;4.314;2023-05-14T05:05:48;17.20;99.90
17715;DHT22;8977;50.902;4.314;2023-05-14T05:08:16;17.20;99.90
17715;DHT22;8977;50.902;4.314;2023-05-14T05:10:43;17.20;99.90
17715;DHT22;8977;50.902;4.314;2023-05-14T05:13:10;17.20;99.90
17715;DHT22;8977;50.902;4.314;2023-05-14T05:15:37;17.20;99.90
17715;DHT22;8977;50.902;4.314;2023-05-14T05:18:04;17.20;99.90
17715;DHT22;8977;50.902;4.314;2023-05-14T05:20:32;17.20;99.90
17715;DHT22;8977;50.902;4.314;2023-05-14T05:22:59;17.20;99.90
17715;DHT22;8977;50.902;4.314;2023-05-14T05:25:26;17.20;99.90
17715;DHT22;8977;50.902;4.314;2023-05-14T05:27:53;17.20;99.90
17715;DHT22;8977;50.902;4.314;2023-05-14T05:30:20;17.30;99.90
17715;DHT22;8977;50.902;4.314;2023-05-14T05:32:47;17.30;99.90
17715;DHT22;8977;50.902;4.314;2023-05-14T05:35:14;17.10;99.90
17715;DHT22;8977;50.902;4.314;2023-05-14T05:37:43;17.20;99.90
17715;DHT22;8977;50.902;4.314;2023-05-14T05:40:11;17.20;99.90
17715;DHT22;8977;50.902;4.314;2023-05-14T05:42:38;17.20;99.90
17715;DHT22;8977;50.902;4.314;2023-05-14T05:45:06;17.20;99.90
17715;DHT22;8977;50.902;4.314;2023-05-14T05:47:33;17.10;99.90
17715;DHT22;8977;50.902;4.314;2023-05-14T05:50:00;17.20;99.90
17715;DHT22;8977;50.902;4.314;2023-05-14T05:52:27;17.20;99.90
17715;DHT22;8977;50.902;4.314;2023-05-14T05:54:56;17.10;99.90
17715;DHT22;8977;50.902;4.314;2023-05-14T05:57:23;17.20;99.90
17715;DHT22;8977;50.902;4.314;2023-05-14T05:59:51;17.30;99.90
17715;DHT22;8977;50.902;4.314;2023-05-14T06:02:18;17.30;99.90
17715;DHT22;8977;50.902;4.314;2023-05-14T06:04:45;17.20;99.90
17715;DHT22;8977;50.902;4.314;2023-05-14T06:07:13;17.20;99.90
17715;DHT22;8977;50.902;4.314;2023-05-14T06:09:40;17.20;99.90
17715;DHT22;8977;50.902;4.314;2023-05-14T06:12:08;17.10;99.90
17715;DHT22;8977;50.902;4.314;2023-05-14T06:14:35;17.10;99.90
17715;DHT22;8977;50.902;4.314;2023-05-14T06:17:02;17.10;99.90
17715;DHT22;8977;50.902;4.314;2023-05-14T06:19:29;17.10;99.90
17715;DHT22;8977;50.902;4.314;2023-05-14T06:21:56;17.10;99.90
17715;DHT22;8977;50.902;4.314;2023-05-14T06:24:23;17.10;99.90
17715;DHT22;8977;50.902;4.314;2023-05-14T06:26:50;17.00;99.90
17715;DHT22;8977;50.902;4.314;2023-05-14T06:29:18;17.00;99.90
17715;DHT22;8977;50.902;4.314;2023-05-14T06:31:45;16.90;99.90
17715;DHT22;8977;50.902;4.314;2023-05-14T06:34:12;16.90;99.90
17715;DHT22;8977;50.902;4.314;2023-05-14T06:36:39;16.90;99.90
17715;DHT22;8977;50.902;4.314;2023-05-14T06:39:06;17.00;99.90
17715;DHT22;8977;50.902;4.314;2023-05-14T06:41:32;17.00;99.90
17715;DHT22;8977;50.902;4.314;2023-05-14T06:43:59;17.00;99.90
17715;DHT22;8977;50.902;4.314;2023-05-14T06:46:28;17.00;99.90
17715;DHT22;8977;50.902;4.314;2023-05-14T06:48:55;16.90;99.90
17715;DHT22;8977;50.902;4.314;2023-05-14T06:51:21;17.00;99.90
17715;DHT22;8977;50.902;4.314;2023-05-14T06:53:48;17.00;99.90
17715;DHT22;8977;50.902;4.314;2023-05-14T06:56:16;17.00;99.90
17715;DHT22;8977;50.902;4.314;2023-05-14T06:58:43;17.00;99.90
17715;DHT22;8977;50.902;4.314;2023-05-14T07:01:10;17.10;99.90
17715;DHT22;8977;50.902;4.314;2023-05-14T07:03:39;17.00;99.90
17715;DHT22;8977;50.902;4.314;2023-05-14T07:06:06;17.00;99.90
17715;DHT22;8977;50.902;4.314;2023-05-14T07:08:33;17.20;99.90
17715;DHT22;8977;50.902;4.314;2023-05-14T07:11:00;17.10;99.90
17715;DHT22;8977;50.902;4.314;2023-05-14T07:13:28;17.10;99.90
17715;DHT22;8977;50.902;4.314;2023-05-14T07:15:55;17.10;99.90
17715;DHT22;8977;50.902;4.314;2023-05-14T07:18:22;17.10;99.90
17715;DHT22;8977;50.902;4.314;2023-05-14T07:20:50;17.10;99.90
17715;DHT22;8977;50.902;4.314;2023-05-14T07:23:17;17.10;99.90
17715;DHT22;8977;50.902;4.314;2023-05-14T07:25:44;17.10;99.90
17715;DHT22;8977;50.902;4.314;2023-05-14T07:28:11;17.00;99.90
17715;DHT22;8977;50.902;4.314;2023-05-14T07:30:38;17.00;99.90
17715;DHT22;8977;50.902;4.314;2023-05-14T07:33:05;17.00;99.90
17715;DHT22;8977;50.902;4.314;2023-05-14T07:35:32;17.10;99.90
17715;DHT22;8977;50.902;4.314;2023-05-14T07:38:00;17.00;99.90
17715;DHT22;8977;50.902;4.314;2023-05-14T07:40:27;17.00;99.90
17715;DHT22;8977;50.902;4.314;2023-05-14T07:42:54;17.00;99.90
17715;DHT22;8977;50.902;4.314;2023-05-14T07:45:21;17.00;99.90
17715;DHT22;8977;50.902;4.314;2023-05-14T07:47:48;17.00;99.90
17715;DHT22;8977;50.902;4.314;2023-05-14T07:50:16;17.00;99.90
17715;DHT22;8977;50.902;4.314;2023-05-14T07:52:43;17.10;99.90
17715;DHT22;8977;50.902;4.314;2023-05-14T07:55:11;17.00;99.90
17715;DHT22;8977;50.902;4.314;2023-05-14T07:57:39;17.10;99.90
17715;DHT22;8977;50.902;4.314;2023-05-14T08:00:07;17.10;99.90
17715;DHT22;8977;50.902;4.314;2023-05-14T08:02:34;17.10;99.90
17715;DHT22;8977;50.902;4.314;2023-05-14T08:05:01;17.10;99.90
17715;DHT22;8977;50.902;4.314;2023-05-14T08:07:29;17.10;99.90
17715;DHT22;8977;50.902;4.314;2023-05-14T08:09:56;17.10;99.90
17715;DHT22;8977;50.902;4.314;2023-05-14T08:12:24;17.20;99.90
17715;DHT22;8977;50.902;4.314;2023-05-14T08:14:51;17.20;99.90
17715;DHT22;8977;50.902;4.314;2023-05-14T08:17:18;17.20;99.90
17715;DHT22;8977;50.902;4.314;2023-05-14T08:19:45;17.30;99.90
17715;DHT22;8977;50.902;4.314;2023-05-14T08:22:12;17.30;99.90
17715;DHT22;8977;50.902;4.314;2023-05-14T08:24:39;17.30;99.90
17715;DHT22;8977;50.902;4.314;2023-05-14T08:27:07;17.40;99.90
17715;DHT22;8977;50.902;4.314;2023-05-14T08:29:35;17.40;99.90
17715;DHT22;8977;50.902;4.314;2023-05-14T08:32:03;17.40;99.90
17715;DHT22;8977;50.902;4.314;2023-05-14T08:34:30;17.40;99.90
17715;DHT22;8977;50.902;4.314;2023-05-14T08:36:56;17.50;99.90
17715;DHT22;8977;50.902;4.314;2023-05-14T08:39:24;17.40;99.90
17715;DHT22;8977;50.902;4.314;2023-05-14T08:41:51;17.50;99.90
17715;DHT22;8977;50.902;4.314;2023-05-14T08:44:18;17.50;99.90
17715;DHT22;8977;50.902;4.314;2023-05-14T08:46:49;17.40;99.90
17715;DHT22;8977;50.902;4.314;2023-05-14T08:49:26;17.40;99.90
17715;DHT22;8977;50.902;4.314;2023-05-14T08:51:58;17.40;99.90
17715;DHT22;8977;50.902;4.314;2023-05-14T08:54:25;17.50;99.90
17715;DHT22;8977;50.902;4.314;2023-05-14T08:56:54;17.40;99.90
17715;DHT22;8977;50.902;4.314;2023-05-14T08:59:21;17.40;99.90
17715;DHT22;8977;50.902;4.314;2023-05-14T09:01:52;17.50;99.90
17715;DHT22;8977;50.902;4.314;2023-05-14T09:04:20;17.50;99.90
17715;DHT22;8977;50.902;4.314;2023-05-14T09:06:49;17.60;99.90
17715;DHT22;8977;50.902;4.314;2023-05-14T09:09:16;17.60;99.90
17715;DHT22;8977;50.902;4.314;2023-05-14T09:11:45;17.50;99.90
17715;DHT22;8977;50.902;4.314;2023-05-14T09:14:12;17.70;99.90
17715;DHT22;8977;50.902;4.314;2023-05-14T09:16:39;17.70;99.90
17715;DHT22;8977;50.902;4.314;2023-05-14T09:19:08;17.70;99.90
17715;DHT22;8977;50.902;4.314;2023-05-14T09:21:36;17.60;99.90
17715;DHT22;8977;50.902;4.314;2023-05-14T09:24:03;17.70;99.90
17715;DHT22;8977;50.902;4.314;2023-05-14T09:26:32;17.70;99.90
17715;DHT22;8977;50.902;4.314;2023-05-14T09:29:00;17.80;99.90
17715;DHT22;8977;50.902;4.314;2023-05-14T09:31:28;17.80;99.90
17715;DHT22;8977;50.902;4.314;2023-05-14T09:33:56;17.80;99.90
17715;DHT22;8977;50.902;4.314;2023-05-14T09:36:25;17.90;99.90
17715;DHT22;8977;50.902;4.314;2023-05-14T09:38:52;17.90;99.90
17715;DHT22;8977;50.902;4.314;2023-05-14T09:41:22;17.80;99.90
17715;DHT22;8977;50.902;4.314;2023-05-14T09:43:49;17.80;99.90
17715;DHT22;8977;50.902;4.314;2023-05-14T09:46:16;17.90;99.90
17715;DHT22;8977;50.902;4.314;2023-05-14T09:48:44;17.90;99.90
17715;DHT22;8977;50.902;4.314;2023-05-14T09:51:12;17.90;99.90
17715;DHT22;8977;50.902;4.314;2023-05-14T09:53:40;17.80;99.90
17715;DHT22;8977;50.902;4.314;2023-05-14T09:56:09;17.90;99.90
17715;DHT22;8977;50.902;4.314;2023-05-14T09:58:36;18.00;99.90
17715;DHT22;8977;50.902;4.314;2023-05-14T10:01:03;17.90;99.90
17715;DHT22;8977;50.902;4.314;2023-05-14T10:03:31;17.90;99.90
17715;DHT22;8977;50.902;4.314;2023-05-14T10:06:01;18.00;99.90
17715;DHT22;8977;50.902;4.314;2023-05-14T10:08:33;18.00;99.90
17715;DHT22;8977;50.902;4.314;2023-05-14T10:11:03;17.90;99.90
17715;DHT22;8977;50.902;4.314;2023-05-14T10:13:36;17.90;99.90
17715;DHT22;8977;50.902;4.314;2023-05-14T10:16:07;18.00;99.90
17715;DHT22;8977;50.902;4.314;2023-05-14T10:18:40;18.10;99.90
17715;DHT22;8977;50.902;4.314;2023-05-14T10:21:10;18.10;99.90
17715;DHT22;8977;50.902;4.314;2023-05-14T10:23:38;18.10;99.90
17715;DHT22;8977;50.902;4.314;2023-05-14T10:26:07;18.20;99.90
17715;DHT22;8977;50.902;4.314;2023-05-14T10:28:34;18.20;99.90
17715;DHT22;8977;50.902;4.314;2023-05-14T10:31:02;18.30;99.90
17715;DHT22;8977;50.902;4.314;2023-05-14T10:33:29;18.40;99.90
17715;DHT22;8977;50.902;4.314;2023-05-14T10:35:58;18.40;99.90
17715;DHT22;8977;50.902;4.314;2023-05-14T10:38:27;18.50;99.90
17715;DHT22;8977;50.902;4.314;2023-05-14T10:41:00;18.50;99.90
17715;DHT22;8977;50.902;4.314;2023-05-14T10:43:30;18.50;99.90
17715;DHT22;8977;50.902;4.314;2023-05-14T10:45:59;18.60;99.90
17715;DHT22;8977;50.902;4.314;2023-05-14T10:48:26;18.60;99.90
17715;DHT22;8977;50.902;4.314;2023-05-14T10:50:55;18.60;99.90
17715;DHT22;8977;50.902;4.314;2023-05-14T10:53:33;18.60;99.90
17715;DHT22;8977;50.902;4.314;2023-05-14T10:56:03;18.60;99.90
17715;DHT22;8977;50.902;4.314;2023-05-14T10:58:34;18.70;99.90
17715;DHT22;8977;50.902;4.314;2023-05-14T11:01:02;18.70;99.90
17715;DHT22;8977;50.902;4.314;2023-05-14T11:03:31;18.70;99.90
17715;DHT22;8977;50.902;4.314;2023-05-14T11:05:59;18.70;99.90
17715;DHT22;8977;50.902;4.314;2023-05-14T11:08:30;18.80;99.90
17715;DHT22;8977;50.902;4.314;2023-05-14T11:10:58;18.80;99.90
17715;DHT22;8977;50.902;4.314;2023-05-14T11:13:26;18.80;99.90
17715;DHT22;8977;50.902;4.314;2023-05-14T11:15:54;18.90;99.90
17715;DHT22;8977;50.902;4.314;2023-05-14T11:18:26;19.10;99.90
17715;DHT22;8977;50.902;4.314;2023-05-14T11:20:53;19.10;99.90
17715;DHT22;8977;50.902;4.314;2023-05-14T11:23:23;19.10;99.90
17715;DHT22;8977;50.902;4.314;2023-05-14T11:25:51;19.10;99.90
17715;DHT22;8977;50.902;4.314;2023-05-14T11:28:19;19.10;99.90
17715;DHT22;8977;50.902;4.314;2023-05-14T11:30:47;19.20;99.90
17715;DHT22;8977;50.902;4.314;2023-05-14T11:33:16;19.20;99.90
17715;DHT22;8977;50.902;4.314;2023-05-14T11:35:44;19.20;99.90
17715;DHT22;8977;50.902;4.314;2023-05-14T11:38:15;19.30;99.90
17715;DHT22;8977;50.902;4.314;2023-05-14T11:40:46;19.30;99.90
17715;DHT22;8977;50.902;4.314;2023-05-14T11:43:16;19.40;99.90
17715;DHT22;8977;50.902;4.314;2023-05-14T11:45:48;19.50;99.90
17715;DHT22;8977;50.902;4.314;2023-05-14T11:48:16;19.60;99.90
17715;DHT22;8977;50.902;4.314;2023-05-14T11:50:44;19.60;99.90
17715;DHT22;8977;50.902;4.314;2023-05-14T11:53:16;19.70;99.90
17715;DHT22;8977;50.902;4.314;2023-05-14T11:55:43;19.80;99.90
17715;DHT22;8977;50.902;4.314;2023-05-14T11:58:09;19.70;99.90
17715;DHT22;8977;50.902;4.314;2023-05-14T12:00:37;19.80;99.90
17715;DHT22;8977;50.902;4.314;2023-05-14T12:03:04;19.90;99.90
17715;DHT22;8977;50.902;4.314;2023-05-14T12:05:32;19.90;99.90
17715;DHT22;8977;50.902;4.314;2023-05-14T12:07:59;20.00;99.90
17715;DHT22;8977;50.902;4.314;2023-05-14T12:10:26;20.00;99.90
17715;DHT22;8977;50.902;4.314;2023-05-14T12:12:53;20.10;99.90
17715;DHT22;8977;50.902;4.314;2023-05-14T12:15:20;20.20;99.90
17715;DHT22;8977;50.902;4.314;2023-05-14T12:17:51;20.20;99.90
17715;DHT22;8977;50.902;4.314;2023-05-14T12:20:18;20.20;99.90
17715;DHT22;8977;50.902;4.314;2023-05-14T12:22:46;20.20;99.90
17715;DHT22;8977;50.902;4.314;2023-05-14T12:25:13;20.30;99.90
17715;DHT22;8977;50.902;4.314;2023-05-14T12:27:42;20.40;99.90
17715;DHT22;8977;50.902;4.314;2023-05-14T12:30:11;20.40;99.90
17715;DHT22;8977;50.902;4.314;2023-05-14T12:32:38;20.50;99.90
17715;DHT22;8977;50.902;4.314;2023-05-14T12:35:06;20.50;99.90
17715;DHT22;8977;50.902;4.314;2023-05-14T12:37:33;20.60;99.90
17715;DHT22;8977;50.902;4.314;2023-05-14T12:40:04;20.70;99.90
17715;DHT22;8977;50.902;4.314;2023-05-14T12:42:33;20.80;99.90
17715;DHT22;8977;50.902;4.314;2023-05-14T12:45:00;20.80;99.90
17715;DHT22;8977;50.902;4.314;2023-05-14T12:47:30;20.90;99.90
17715;DHT22;8977;50.902;4.314;2023-05-14T12:49:57;20.90;99.90
17715;DHT22;8977;50.902;4.314;2023-05-14T12:52:24;20.90;99.90
17715;DHT22;8977;50.902;4.314;2023-05-14T12:54:51;21.00;99.90
17715;DHT22;8977;50.902;4.314;2023-05-14T12:57:19;21.00;99.90
17715;DHT22;8977;50.902;4.314;2023-05-14T12:59:46;21.00;99.90
17715;DHT22;8977;50.902;4.314;2023-05-14T13:02:13;21.10;99.90
17715;DHT22;8977;50.902;4.314;2023-05-14T13:04:42;21.20;99.90
17715;DHT22;8977;50.902;4.314;2023-05-14T13:07:08;21.20;99.90
17715;DHT22;8977;50.902;4.314;2023-05-14T13:09:35;21.30;99.90
17715;DHT22;8977;50.902;4.314;2023-05-14T13:12:03;21.40;99.90
17715;DHT22;8977;50.902;4.314;2023-05-14T13:14:31;21.40;99.90
17715;DHT22;8977;50.902;4.314;2023-05-14T13:16:58;21.50;99.90
17715;DHT22;8977;50.902;4.314;2023-05-14T13:19:25;21.50;99.90
17715;DHT22;8977;50.902;4.314;2023-05-14T13:21:52;21.60;99.90
17715;DHT22;8977;50.902;4.314;2023-05-14T13:24:19;21.60;99.90
17715;DHT22;8977;50.902;4.314;2023-05-14T13:26:46;21.60;99.90
17715;DHT22;8977;50.902;4.314;2023-05-14T13:29:13;21.60;99.90
17715;DHT22;8977;50.902;4.314;2023-05-14T13:31:41;21.60;99.90
17715;DHT22;8977;50.902;4.314;2023-05-14T13:34:08;21.70;99.90
17715;DHT22;8977;50.902;4.314;2023-05-14T13:36:35;21.70;99.90
17715;DHT22;8977;50.902;4.314;2023-05-14T13:39:04;21.60;99.90
17715;DHT22;8977;50.902;4.314;2023-05-14T13:41:31;21.70;99.90
17715;DHT22;8977;50.902;4.314;2023-05-14T13:43:59;21.70;99.90
17715;DHT22;8977;50.902;4.314;2023-05-14T13:46:26;21.70;99.90
17715;DHT22;8977;50.902;4.314;2023-05-14T13:48:54;21.70;99.90
17715;DHT22;8977;50.902;4.314;2023-05-14T13:51:21;21.70;99.90
17715;DHT22;8977;50.902;4.314;2023-05-14T13:53:48;21.70;99.90
17715;DHT22;8977;50.902;4.314;2023-05-14T13:56:15;21.70;99.90
17715;DHT22;8977;50.902;4.314;2023-05-14T13:58:42;21.70;99.90
17715;DHT22;8977;50.902;4.314;2023-05-14T14:01:09;21.70;99.90
17715;DHT22;8977;50.902;4.314;2023-05-14T14:03:36;21.80;99.90
17715;DHT22;8977;50.902;4.314;2023-05-14T14:06:05;21.70;99.90
17715;DHT22;8977;50.902;4.314;2023-05-14T14:08:31;21.70;99.90
17715;DHT22;8977;50.902;4.314;2023-05-14T14:10:58;21.70;99.90
17715;DHT22;8977;50.902;4.314;2023-05-14T14:13:25;21.60;99.90
17715;DHT22;8977;50.902;4.314;2023-05-14T14:15:54;21.60;99.90
17715;DHT22;8977;50.902;4.314;2023-05-14T14:18:21;21.60;99.90
17715;DHT22;8977;50.902;4.314;2023-05-14T14:20:48;21.60;99.90
17715;DHT22;8977;50.902;4.314;2023-05-14T14:23:16;21.60;99.90
17715;DHT22;8977;50.902;4.314;2023-05-14T14:25:44;21.60;99.90
17715;DHT22;8977;50.902;4.314;2023-05-14T14:28:10;21.60;99.90
17715;DHT22;8977;50.902;4.314;2023-05-14T14:30:38;21.60;99.90
17715;DHT22;8977;50.902;4.314;2023-05-14T14:33:05;21.50;99.90
17715;DHT22;8977;50.902;4.314;2023-05-14T14:35:32;21.50;99.90
17715;DHT22;8977;50.902;4.314;2023-05-14T14:37:59;21.50;99.90
17715;DHT22;8977;50.902;4.314;2023-05-14T14:40:28;21.40;99.90
17715;DHT22;8977;50.902;4.314;2023-05-14T14:42:55;21.40;99.90
17715;DHT22;8977;50.902;4.314;2023-05-14T14:45:22;21.40;99.90
17715;DHT22;8977;50.902;4.314;2023-05-14T14:47:49;21.40;99.90
17715;DHT22;8977;50.902;4.314;2023-05-14T14:50:15;21.40;99.90
17715;DHT22;8977;50.902;4.314;2023-05-14T14:52:42;21.40;99.90
17715;DHT22;8977;50.902;4.314;2023-05-14T14:55:10;21.40;99.90
17715;DHT22;8977;50.902;4.314;2023-05-14T14:57:38;21.40;99.90
17715;DHT22;8977;50.902;4.314;2023-05-14T15:00:06;21.40;99.90
17715;DHT22;8977;50.902;4.314;2023-05-14T15:02:33;21.40;99.90
17715;DHT22;8977;50.902;4.314;2023-05-14T15:05:03;21.40;99.90
17715;DHT22;8977;50.902;4.314;2023-05-14T15:07:30;21.30;99.90
17715;DHT22;8977;50.902;4.314;2023-05-14T15:09:57;21.30;99.90
17715;DHT22;8977;50.902;4.314;2023-05-14T15:12:24;21.30;99.90
17715;DHT22;8977;50.902;4.314;2023-05-14T15:14:53;21.30;99.90
17715;DHT22;8977;50.902;4.314;2023-05-14T15:17:20;21.20;99.90
17715;DHT22;8977;50.902;4.314;2023-05-14T15:19:47;21.30;99.90
17715;DHT22;8977;50.902;4.314;2023-05-14T15:22:14;21.20;99.90
17715;DHT22;8977;50.902;4.314;2023-05-14T15:24:41;21.20;99.90
17715;DHT22;8977;50.902;4.314;2023-05-14T15:27:08;21.20;99.90
17715;DHT22;8977;50.902;4.314;2023-05-14T15:29:35;21.10;99.90
17715;DHT22;8977;50.902;4.314;2023-05-14T15:32:04;21.10;99.90
17715;DHT22;8977;50.902;4.314;2023-05-14T15:34:31;21.20;99.90
17715;DHT22;8977;50.902;4.314;2023-05-14T15:36:58;21.20;99.90
17715;DHT22;8977;50.902;4.314;2023-05-14T15:39:24;21.20;99.90
17715;DHT22;8977;50.902;4.314;2023-05-14T15:41:51;21.10;99.90
17715;DHT22;8977;50.902;4.314;2023-05-14T15:44:18;21.00;99.90
17715;DHT22;8977;50.902;4.314;2023-05-14T15:46:45;21.00;99.90